createdAt,value
2019-03-23T00:02:43.611Z,2.67
2019-03-23T00:07:47.074Z,3.55
2019-03-23T00:12:50.541Z,3.20
2019-03-23T00:17:54.001Z,3.67
2019-03-23T00:22:57.475Z,3.05
2019-03-23T00:28:00.997Z,2.27
2019-03-23T00:33:04.478Z,4.53
2019-03-23T00:38:07.940Z,2.98
2019-03-23T00:43:11.407Z,2.45
2019-03-23T00:48:14.870Z,3.17
2019-03-23T00:53:18.584Z,3.03
2019-03-23T00:58:22.213Z,3.85
2019-03-23T01:03:25.689Z,2.50
2019-03-23T01:08:29.177Z,3.17
2019-03-23T01:13:32.641Z,2.50
2019-03-23T01:18:36.124Z,2.22
2019-03-23T01:23:39.627Z,2.95
2019-03-23T01:28:43.085Z,2.42
2019-03-23T01:33:46.544Z,2.70
2019-03-23T01:38:50.012Z,2.60
2019-03-23T01:43:53.476Z,2.58
2019-03-23T01:48:56.941Z,1.98
2019-03-23T01:54:00.401Z,2.40
2019-03-23T01:59:03.878Z,2.83
2019-03-23T02:04:07.342Z,2.75
2019-03-23T02:09:10.805Z,3.52
2019-03-23T02:14:14.320Z,3.25
2019-03-23T02:19:17.782Z,3.10
2019-03-23T02:24:21.246Z,2.17
2019-03-23T02:29:24.758Z,1.90
2019-03-23T02:34:28.219Z,1.90
2019-03-23T02:39:31.691Z,2.02
2019-03-23T02:44:35.156Z,2.65
2019-03-23T02:49:38.620Z,1.98
2019-03-23T02:54:42.085Z,2.15
2019-03-23T02:59:45.566Z,2.10
2019-03-23T03:04:49.027Z,2.87
2019-03-23T03:09:52.588Z,2.27
2019-03-23T03:14:56.038Z,1.87
2019-03-23T03:19:59.497Z,2.50
2019-03-23T03:25:03.177Z,1.63
2019-03-23T03:30:09.021Z,2.90
2019-03-23T03:35:12.662Z,1.53
2019-03-23T03:40:16.367Z,3.73
2019-03-23T03:45:27.510Z,2.00
2019-03-23T03:50:31.109Z,1.60
2019-03-23T03:55:34.573Z,3.17
2019-03-23T04:00:38.038Z,2.45
2019-03-23T04:05:41.573Z,2.02
2019-03-23T04:10:45.118Z,1.82
2019-03-23T04:15:48.582Z,1.77
2019-03-23T04:20:52.044Z,2.40
2019-03-23T04:25:55.508Z,2.33
2019-03-23T04:30:58.991Z,1.87
2019-03-23T04:36:02.465Z,1.82
2019-03-23T04:41:05.933Z,2.17
2019-03-23T04:46:09.393Z,1.77
2019-03-23T04:51:12.856Z,2.08
2019-03-23T04:56:16.318Z,1.35
2019-03-23T05:01:19.777Z,1.87
2019-03-23T05:06:23.415Z,1.67
2019-03-23T05:11:26.886Z,1.60
2019-03-23T05:16:30.345Z,1.93
2019-03-23T05:21:35.317Z,2.00
2019-03-23T05:26:38.780Z,1.80
2019-03-23T05:31:42.240Z,1.73
2019-03-23T05:36:45.700Z,1.60
2019-03-23T05:41:49.160Z,1.75
2019-03-23T05:46:54.387Z,1.55
2019-03-23T05:51:57.838Z,1.37
2019-03-23T05:57:01.302Z,1.62
2019-03-23T06:02:04.781Z,1.75
2019-03-23T06:07:08.244Z,1.55
2019-03-23T06:12:11.715Z,1.40
2019-03-23T06:17:15.198Z,1.85
2019-03-23T06:22:18.676Z,1.50
2019-03-23T06:27:22.136Z,1.70
2019-03-23T06:32:25.602Z,1.47
2019-03-23T06:37:29.072Z,1.62
2019-03-23T06:42:32.530Z,2.52
2019-03-23T06:47:35.997Z,1.40
2019-03-23T06:52:39.528Z,1.52
2019-03-23T06:57:42.995Z,1.30
2019-03-23T07:02:46.849Z,1.33
2019-03-23T07:07:50.314Z,1.85
2019-03-23T07:12:53.788Z,1.45
2019-03-23T07:17:57.239Z,1.47
2019-03-23T07:23:00.704Z,1.87
2019-03-23T07:28:04.231Z,1.50
2019-03-23T07:33:07.693Z,1.45
2019-03-23T07:38:11.153Z,1.75
2019-03-23T07:43:14.623Z,1.45
2019-03-23T07:48:18.074Z,1.67
2019-03-23T07:53:21.562Z,1.22
2019-03-23T07:58:25.029Z,1.70
2019-03-23T08:03:28.494Z,7.58
2019-03-23T08:08:31.957Z,9.27
2019-03-23T08:13:35.420Z,9.88
2019-03-23T08:18:38.881Z,7.07
2019-03-23T08:23:42.341Z,6.73
2019-03-23T08:28:45.804Z,5.92
2019-03-23T08:33:49.264Z,6.33
2019-03-23T08:38:52.733Z,5.10
2019-03-23T08:43:56.185Z,7.50
2019-03-23T08:48:59.648Z,5.60
2019-03-23T08:54:03.111Z,7.17
2019-03-23T08:59:06.585Z,7.20
2019-03-23T09:04:10.043Z,3.42
2019-03-23T09:09:13.510Z,5.05
2019-03-23T09:14:16.972Z,5.50
2019-03-23T09:19:20.450Z,4.80
2019-03-23T09:24:23.978Z,4.87
2019-03-23T09:29:27.436Z,4.97
2019-03-23T09:34:30.898Z,4.25
2019-03-23T09:39:34.358Z,3.87
2019-03-23T09:44:37.818Z,4.35
2019-03-23T09:49:41.280Z,6.72
2019-03-23T09:54:44.740Z,5.25
2019-03-23T09:59:48.209Z,6.05
2019-03-23T10:04:51.696Z,8.30
2019-03-23T10:15:26.275Z,4.45
2019-03-23T10:20:29.739Z,10.03
2019-03-23T10:25:33.230Z,4.83
2019-03-23T10:30:36.686Z,7.15
2019-03-23T10:35:40.161Z,8.05
2019-03-23T10:40:43.624Z,6.83
2019-03-23T10:45:47.100Z,7.78
2019-03-23T10:50:50.600Z,7.77
2019-03-23T10:55:54.100Z,7.67
2019-03-23T11:06:24.309Z,8.87
2019-03-23T11:11:27.785Z,9.45
2019-03-23T11:16:31.271Z,21.75
2019-03-23T11:21:34.757Z,19.10
2019-03-23T11:26:38.244Z,21.77
2019-03-23T11:31:41.774Z,35.75
2019-03-23T11:36:45.258Z,40.35
2019-03-23T11:41:48.741Z,40.38
2019-03-23T11:46:52.255Z,42.15
2019-03-23T11:51:55.724Z,46.15
2019-03-23T11:56:59.209Z,38.40
2019-03-23T12:02:02.705Z,29.70
2019-03-23T12:07:06.220Z,23.70
2019-03-23T12:12:09.720Z,25.62
2019-03-23T12:17:13.180Z,21.50
2019-03-23T12:22:16.671Z,22.93
2019-03-23T12:27:20.170Z,22.65
2019-03-23T12:37:30.340Z,23.05
2019-03-23T12:42:33.821Z,19.98
2019-03-23T12:47:37.309Z,19.52
2019-03-23T13:25:40.352Z,11.70
2019-03-23T13:30:43.834Z,12.25
2019-03-23T13:35:47.321Z,13.62
2019-03-23T13:40:50.871Z,13.55
2019-03-23T13:45:54.358Z,15.32
2019-03-23T13:50:57.843Z,17.37
2019-03-23T13:56:01.326Z,15.30
2019-03-23T14:01:04.816Z,17.42
2019-03-23T14:06:08.303Z,17.82
2019-03-23T14:11:11.789Z,21.30
2019-03-23T14:16:15.275Z,22.25
2019-03-23T14:21:18.768Z,20.85
2019-03-23T14:26:22.261Z,24.77
2019-03-23T14:31:25.742Z,31.82
2019-03-23T14:36:29.228Z,32.42
2019-03-23T15:09:07.434Z,21.52
2019-03-23T15:14:10.902Z,16.90
2019-03-23T15:19:15.616Z,16.82
2019-03-23T15:24:19.320Z,14.70
2019-03-23T15:29:22.818Z,17.45
2019-03-23T15:34:26.295Z,18.52
2019-03-23T15:39:29.757Z,13.53
2019-03-23T15:44:33.221Z,13.30
2019-03-23T15:49:36.678Z,12.40
2019-03-23T15:54:40.148Z,14.87
2019-03-23T15:59:43.619Z,11.83
2019-03-23T16:04:47.085Z,13.95
2019-03-23T16:09:50.553Z,13.78
2019-03-23T16:14:54.013Z,13.62
2019-03-23T16:19:57.472Z,14.10
2019-03-23T16:25:00.943Z,16.25
2019-03-23T16:30:10.315Z,13.53
2019-03-23T16:35:13.903Z,15.08
2019-03-23T16:40:17.375Z,14.47
2019-03-23T16:45:21.013Z,16.17
2019-03-23T16:50:24.483Z,18.70
2019-03-23T16:55:27.955Z,17.10
2019-03-23T17:00:36.015Z,18.67
2019-03-23T17:05:39.494Z,16.07
2019-03-23T17:10:42.966Z,15.95
2019-03-23T17:15:46.464Z,17.67
2019-03-23T17:20:49.888Z,16.83
2019-03-23T17:25:53.354Z,16.10
2019-03-23T17:30:56.865Z,13.65
2019-03-23T17:36:00.329Z,10.93
2019-03-23T17:41:03.794Z,11.40
2019-03-23T17:46:07.261Z,11.70
2019-03-23T17:51:10.729Z,9.65
2019-03-23T17:56:14.202Z,12.10
2019-03-23T18:01:19.720Z,7.53
2019-03-23T18:06:23.089Z,8.13
2019-03-23T18:11:26.549Z,9.13
2019-03-23T18:16:30.007Z,9.53
2019-03-23T18:21:33.479Z,7.65
2019-03-23T18:26:36.942Z,6.83
2019-03-23T18:31:40.427Z,6.37
2019-03-23T18:36:44.229Z,7.83
2019-03-23T18:41:47.688Z,6.80
2019-03-23T18:46:51.149Z,8.43
2019-03-23T18:51:54.607Z,7.00
2019-03-23T18:56:58.072Z,6.15
2019-03-23T19:02:01.535Z,6.63
2019-03-23T19:07:06.276Z,4.87
2019-03-23T19:12:09.741Z,5.47
2019-03-23T19:17:13.202Z,6.17
2019-03-23T19:22:16.666Z,5.65
2019-03-23T19:27:20.131Z,5.60
2019-03-23T19:32:23.586Z,7.37
2019-03-23T19:37:27.047Z,7.33
2019-03-23T19:42:30.507Z,7.15
2019-03-23T19:47:33.969Z,7.00
2019-03-23T19:52:37.435Z,7.40
2019-03-23T19:57:40.888Z,5.92
2019-03-23T20:02:44.518Z,5.40
2019-03-23T20:07:47.975Z,6.22
2019-03-23T20:12:51.616Z,6.95
2019-03-23T20:17:55.049Z,6.42
2019-03-23T20:22:58.514Z,7.00
2019-03-23T20:28:01.972Z,9.90
2019-03-23T20:33:05.431Z,6.47
2019-03-23T20:38:08.890Z,4.97
2019-03-23T20:43:12.348Z,5.85
2019-03-23T20:48:17.247Z,6.55
2019-03-23T20:53:20.880Z,6.67
2019-03-23T20:58:24.340Z,4.97
2019-03-23T21:03:27.799Z,5.28
2019-03-23T21:08:32.553Z,5.40
2019-03-23T21:13:36.017Z,5.00
2019-03-23T21:18:39.483Z,4.03
2019-03-23T21:23:42.945Z,4.72
2019-03-23T21:28:46.403Z,4.83
2019-03-23T21:33:49.864Z,4.35
2019-03-23T21:38:53.322Z,3.92
2019-03-23T21:43:56.788Z,5.05
2019-03-23T21:49:00.249Z,4.22
2019-03-23T21:54:03.724Z,3.50
2019-03-23T21:59:07.182Z,4.20
2019-03-23T22:04:10.647Z,4.35
2019-03-23T22:09:14.119Z,3.90
2019-03-23T22:14:17.592Z,4.20
2019-03-23T22:19:21.109Z,3.52
2019-03-23T22:24:24.582Z,3.72
2019-03-23T22:29:28.043Z,4.40
2019-03-23T22:34:31.499Z,3.80
2019-03-23T22:39:34.960Z,3.47
2019-03-23T22:44:38.425Z,4.10
2019-03-23T22:49:41.883Z,3.33
2019-03-23T22:54:45.351Z,3.53
2019-03-23T22:59:48.812Z,3.77
2019-03-23T23:04:52.450Z,3.20
2019-03-23T23:09:55.908Z,3.03
2019-03-23T23:15:04.288Z,2.83
2019-03-23T23:20:06.712Z,4.00
2019-03-23T23:25:10.338Z,3.10
2019-03-23T23:30:14.537Z,3.70
2019-03-23T23:35:18.000Z,2.93
2019-03-23T23:40:21.462Z,3.00
2019-03-23T23:45:24.927Z,2.92
2019-03-23T23:50:28.384Z,3.60
2019-03-23T23:55:31.845Z,3.20
